createdAt,value
2022-10-18T00:01:12.159Z,8.05
2022-10-18T00:09:47.366Z,10.18
2022-10-18T00:12:14.828Z,10.20
2022-10-18T00:14:42.128Z,9.35
2022-10-18T00:17:09.592Z,8.77
2022-10-18T00:19:36.838Z,8.95
2022-10-18T00:22:04.364Z,8.73
2022-10-18T00:24:31.718Z,9.43
2022-10-18T00:26:59.111Z,7.93
2022-10-18T00:29:26.418Z,8.07
2022-10-18T00:39:44.281Z,7.85
2022-10-18T00:42:14.995Z,6.90
2022-10-18T00:44:42.253Z,7.32
2022-10-18T00:50:52.332Z,6.25
2022-10-18T00:56:51.165Z,6.50
2022-10-18T00:59:19.066Z,6.15
2022-10-18T01:05:18.941Z,5.85
2022-10-18T01:08:15.815Z,6.10
2022-10-18T01:10:51.661Z,6.90
2022-10-18T01:13:25.963Z,6.68
2022-10-18T01:18:28.456Z,6.25
2022-10-18T01:20:55.701Z,6.15
2022-10-18T01:23:23.191Z,6.43
2022-10-18T01:26:00.244Z,7.47
2022-10-18T01:28:34.304Z,7.18
2022-10-18T01:31:03.558Z,6.22
2022-10-18T01:37:04.472Z,6.45
2022-10-18T01:39:34.768Z,7.38
2022-10-18T01:42:05.984Z,7.25
2022-10-18T01:44:34.020Z,6.50
2022-10-18T01:47:01.358Z,5.85
2022-10-18T01:49:29.189Z,5.68
2022-10-18T01:51:56.514Z,6.22
2022-10-18T01:54:28.826Z,6.00
2022-10-18T01:57:02.046Z,5.55
2022-10-18T01:59:48.778Z,5.93
2022-10-18T02:02:24.862Z,6.18
2022-10-18T02:05:09.875Z,6.50
2022-10-18T02:11:04.517Z,7.20
2022-10-18T02:13:47.172Z,6.53
2022-10-18T02:16:17.716Z,6.53
2022-10-18T02:19:14.400Z,6.00
2022-10-18T02:21:43.257Z,7.00
2022-10-18T02:24:12.630Z,6.35
2022-10-18T02:26:40.464Z,6.93
2022-10-18T02:29:08.324Z,6.90
2022-10-18T02:31:44.160Z,7.53
2022-10-18T02:34:31.488Z,7.10
2022-10-18T02:37:31.488Z,7.82
2022-10-18T02:39:58.922Z,7.13
2022-10-18T02:42:32.877Z,7.68
2022-10-18T02:45:00.416Z,7.43
2022-10-18T02:47:27.884Z,6.93
2022-10-18T02:49:55.149Z,7.68
2022-10-18T02:52:22.582Z,7.60
2022-10-18T02:54:49.812Z,7.53
2022-10-18T02:57:19.386Z,6.43
2022-10-18T02:59:46.659Z,7.13
2022-10-18T03:02:14.129Z,8.07
2022-10-18T03:04:53.698Z,7.50
2022-10-18T03:07:21.161Z,7.00
2022-10-18T03:10:03.971Z,7.60
2022-10-18T03:12:31.413Z,7.28
2022-10-18T03:14:58.845Z,7.32
2022-10-18T03:17:26.377Z,8.25
2022-10-18T03:19:53.675Z,8.43
2022-10-18T03:22:21.554Z,8.15
2022-10-18T03:24:48.816Z,8.30
2022-10-18T03:27:16.296Z,7.95
2022-10-18T03:29:43.602Z,9.10
2022-10-18T03:32:11.153Z,8.13
2022-10-18T03:34:39.102Z,8.73
2022-10-18T03:37:08.030Z,8.57
2022-10-18T03:39:35.278Z,7.82
2022-10-18T03:42:02.988Z,7.60
2022-10-18T03:44:30.364Z,8.18
2022-10-18T03:46:57.881Z,8.27
2022-10-18T03:49:25.254Z,8.75
2022-10-18T03:51:52.694Z,9.25
2022-10-18T03:54:19.922Z,9.60
2022-10-18T03:56:47.451Z,9.05
2022-10-18T03:59:14.715Z,8.27
2022-10-18T04:01:42.473Z,8.25
2022-10-18T04:07:41.252Z,8.25
2022-10-18T04:13:49.889Z,7.60
2022-10-18T04:16:17.324Z,8.20
2022-10-18T04:18:44.641Z,7.85
2022-10-18T04:21:12.128Z,8.57
2022-10-18T04:23:39.507Z,9.05
2022-10-18T04:26:07.253Z,8.10
2022-10-18T04:28:35.222Z,8.93
2022-10-18T04:31:02.703Z,8.23
2022-10-18T04:33:29.970Z,10.05
2022-10-18T04:39:53.704Z,8.68
2022-10-18T04:42:22.316Z,8.73
2022-10-18T04:44:49.895Z,9.18
2022-10-18T04:47:17.517Z,10.75
2022-10-18T04:49:45.024Z,10.93
2022-10-18T04:52:12.613Z,12.38
2022-10-18T04:54:39.854Z,12.98
2022-10-18T04:57:07.419Z,14.25
2022-10-18T04:59:34.693Z,14.25
2022-10-18T05:04:29.328Z,13.48
2022-10-18T05:10:19.146Z,12.33
2022-10-18T05:16:08.431Z,13.70
2022-10-18T05:18:35.984Z,12.82
2022-10-18T05:21:03.271Z,11.68
2022-10-18T05:23:30.742Z,12.57
2022-10-18T05:26:01.230Z,12.30
2022-10-18T05:28:44.127Z,13.07
2022-10-18T05:31:11.720Z,11.25
2022-10-18T05:33:51.466Z,12.75
2022-10-18T05:36:19.011Z,11.98
2022-10-18T05:38:46.479Z,12.55
2022-10-18T05:41:15.887Z,10.73
2022-10-18T05:43:43.365Z,11.10
2022-10-18T05:46:15.180Z,10.95
2022-10-18T05:48:44.090Z,10.40
2022-10-18T05:51:11.369Z,9.27
2022-10-18T05:53:39.047Z,10.63
2022-10-18T05:56:06.797Z,10.25
2022-10-18T05:58:35.243Z,9.82
2022-10-18T06:01:03.314Z,10.75
2022-10-18T06:03:31.177Z,9.98
2022-10-18T06:05:59.760Z,10.80
2022-10-18T06:08:30.762Z,10.82
2022-10-18T06:10:58.010Z,11.68
2022-10-18T06:13:27.158Z,11.10
2022-10-18T06:15:55.977Z,10.30
2022-10-18T06:18:23.533Z,9.55
2022-10-18T07:31:27.975Z,9.80
2022-10-18T07:46:20.297Z,8.70
2022-10-18T07:48:47.945Z,7.20
2022-10-18T08:47:05.141Z,8.65
2022-10-18T10:05:24.599Z,6.88
2022-10-18T10:10:28.352Z,6.95
2022-10-18T10:15:37.101Z,7.20
2022-10-18T10:24:25.101Z,6.95
2022-10-18T10:46:52.644Z,6.88
2022-10-18T11:05:55.770Z,7.55
2022-10-18T11:25:25.038Z,7.88
2022-10-18T12:14:20.646Z,7.35
2022-10-18T13:34:49.285Z,7.45
2022-10-18T13:39:44.947Z,7.68
2022-10-18T13:44:41.349Z,9.07
2022-10-18T13:52:49.183Z,7.30
2022-10-18T14:20:49.006Z,7.53
2022-10-18T14:34:02.647Z,11.48
2022-10-18T14:36:39.547Z,10.73
2022-10-18T14:39:19.492Z,9.38
2022-10-18T14:41:53.556Z,7.75
2022-10-18T14:44:26.215Z,7.07
2022-10-18T14:47:32.392Z,6.40
2022-10-18T14:50:00.429Z,6.05
2022-10-18T14:55:03.694Z,5.75
2022-10-18T15:00:07.158Z,5.70
2022-10-18T15:02:39.087Z,6.50
2022-10-18T15:05:22.428Z,4.28
2022-10-18T15:08:09.395Z,3.05
2022-10-18T15:10:36.815Z,2.40
2022-10-18T15:13:12.063Z,2.53
2022-10-18T15:15:40.054Z,2.15
2022-10-18T15:18:20.422Z,2.00
2022-10-18T15:21:14.374Z,1.55
2022-10-18T15:23:41.812Z,1.80
2022-10-18T15:26:12.639Z,1.88
2022-10-18T15:28:44.160Z,1.60
2022-10-18T15:31:21.548Z,2.17
2022-10-18T15:33:49.140Z,1.58
2022-10-18T15:36:29.216Z,1.42
2022-10-18T15:39:31.379Z,1.15
2022-10-18T15:41:59.454Z,1.20
2022-10-18T15:44:32.840Z,1.30
2022-10-18T15:47:09.270Z,1.15
2022-10-18T15:52:53.792Z,1.05
2022-10-18T15:55:29.782Z,1.00
2022-10-18T15:58:32.034Z,0.90
2022-10-18T16:01:00.903Z,1.00
2022-10-18T16:03:28.457Z,1.10
2022-10-18T16:05:59.256Z,1.38
2022-10-18T16:08:28.513Z,1.20
2022-10-18T16:10:56.597Z,1.27
2022-10-18T16:13:24.134Z,1.30
2022-10-18T16:15:52.082Z,1.40
2022-10-18T16:18:29.785Z,1.35
2022-10-18T16:20:57.254Z,1.70
2022-10-18T16:26:50.371Z,2.10
2022-10-18T16:29:19.073Z,2.40
2022-10-18T16:31:46.709Z,2.53
2022-10-18T16:34:14.154Z,2.03
2022-10-18T16:36:41.656Z,2.05
2022-10-18T16:39:13.868Z,2.08
2022-10-18T16:41:41.362Z,2.63
2022-10-18T16:44:08.674Z,2.35
2022-10-18T16:46:36.260Z,2.58
2022-10-18T16:49:35.072Z,2.30
2022-10-18T16:52:02.618Z,2.63
2022-10-18T16:54:40.949Z,2.95
2022-10-18T16:57:09.112Z,3.00
2022-10-18T16:59:38.853Z,2.83
2022-10-18T17:02:08.957Z,2.88
2022-10-18T17:04:36.366Z,2.80
2022-10-18T17:07:03.933Z,3.13
2022-10-18T17:09:31.269Z,2.75
2022-10-18T17:11:58.737Z,3.10
2022-10-18T17:14:26.037Z,3.05
2022-10-18T17:16:55.892Z,3.60
2022-10-18T17:19:31.053Z,3.70
2022-10-18T17:22:02.418Z,3.33
2022-10-18T17:28:00.195Z,3.22
2022-10-18T17:30:27.859Z,4.80
2022-10-18T17:32:55.722Z,3.63
2022-10-18T17:35:23.339Z,3.53
2022-10-18T17:37:51.347Z,3.17
2022-10-18T17:40:18.916Z,3.05
2022-10-18T17:42:46.414Z,3.25
2022-10-18T17:45:13.848Z,3.55
2022-10-18T17:47:41.291Z,3.65
2022-10-18T17:50:08.698Z,3.80
2022-10-18T17:52:40.406Z,4.70
2022-10-18T17:55:07.992Z,4.95
2022-10-18T17:57:36.168Z,4.32
2022-10-18T18:00:04.521Z,5.20
2022-10-18T18:02:32.286Z,5.25
2022-10-18T18:04:59.778Z,4.93
2022-10-18T18:07:27.427Z,4.63
2022-10-18T18:09:55.442Z,4.70
2022-10-18T18:12:23.266Z,4.93
2022-10-18T18:14:50.591Z,4.68
2022-10-18T18:17:24.812Z,4.60
2022-10-18T18:20:01.712Z,4.65
2022-10-18T18:22:29.253Z,4.97
2022-10-18T18:24:56.603Z,5.45
2022-10-18T18:27:24.159Z,4.85
2022-10-18T18:29:51.428Z,4.85
2022-10-18T18:32:18.945Z,4.45
2022-10-18T18:34:46.245Z,5.15
2022-10-18T18:37:13.724Z,4.97
2022-10-18T18:39:41.203Z,5.80
2022-10-18T18:42:08.653Z,5.65
2022-10-18T18:44:37.343Z,5.05
2022-10-18T18:47:06.528Z,5.10
2022-10-18T18:49:35.704Z,5.82
2022-10-18T18:52:03.288Z,5.03
2022-10-18T18:54:30.608Z,5.85
2022-10-18T18:56:58.202Z,5.30
2022-10-18T18:59:25.612Z,5.88
2022-10-18T19:01:53.122Z,5.50
2022-10-18T19:04:20.407Z,5.43
2022-10-18T19:06:47.893Z,5.65
2022-10-18T19:09:17.327Z,5.65
2022-10-18T19:11:45.479Z,5.68
2022-10-18T19:14:13.214Z,5.90
2022-10-18T19:16:41.627Z,5.80
2022-10-18T19:19:16.098Z,7.47
2022-10-18T19:21:48.084Z,6.63
2022-10-18T19:24:15.810Z,6.50
2022-10-18T19:26:49.497Z,6.80
2022-10-18T19:29:16.823Z,6.57
2022-10-18T19:31:44.728Z,7.13
2022-10-18T19:34:12.782Z,7.28
2022-10-18T19:36:41.041Z,7.55
2022-10-18T19:39:09.198Z,8.60
2022-10-18T19:41:36.946Z,7.93
2022-10-18T19:44:05.083Z,7.32
2022-10-18T19:46:41.246Z,7.05
2022-10-18T19:49:08.675Z,7.63
2022-10-18T19:51:36.338Z,7.57
2022-10-18T19:54:03.858Z,7.05
2022-10-18T19:56:31.756Z,6.80
2022-10-18T19:58:59.428Z,7.18
2022-10-18T20:01:28.472Z,6.57
2022-10-18T20:03:56.213Z,6.70
2022-10-18T20:06:25.928Z,7.20
2022-10-18T20:08:53.905Z,5.68
2022-10-18T20:11:22.658Z,6.38
2022-10-18T20:13:50.510Z,6.13
2022-10-18T20:16:20.129Z,7.20
2022-10-18T20:18:49.521Z,7.07
2022-10-18T20:21:17.250Z,8.00
2022-10-18T20:23:44.575Z,9.27
2022-10-18T20:26:18.183Z,9.73
2022-10-18T20:28:48.499Z,11.15
2022-10-18T20:31:17.069Z,10.73
2022-10-18T20:33:45.447Z,11.48
2022-10-18T20:36:14.441Z,11.32
2022-10-18T20:38:42.542Z,10.55
2022-10-18T20:41:12.198Z,10.13
2022-10-18T20:43:40.050Z,11.32
2022-10-18T20:46:07.734Z,11.00
2022-10-18T20:48:35.411Z,11.77
2022-10-18T20:51:03.832Z,11.10
2022-10-18T20:53:34.445Z,11.20
2022-10-18T20:56:03.107Z,10.23
2022-10-18T20:58:30.444Z,10.27
2022-10-18T21:01:04.444Z,9.18
2022-10-18T21:03:31.863Z,9.85
2022-10-18T21:05:59.298Z,10.25
2022-10-18T21:08:26.744Z,10.32
2022-10-18T21:10:54.316Z,10.60
2022-10-18T21:13:21.596Z,10.73
2022-10-18T21:15:55.427Z,10.80
2022-10-18T21:18:24.149Z,10.60
2022-10-18T21:20:54.015Z,10.82
2022-10-18T21:23:21.372Z,11.60
2022-10-18T21:25:49.254Z,10.95
2022-10-18T21:28:19.608Z,10.82
2022-10-18T21:30:47.156Z,11.35
2022-10-18T21:33:14.448Z,11.32
2022-10-18T21:35:41.967Z,11.75
2022-10-18T21:38:09.344Z,12.18
2022-10-18T21:40:36.997Z,12.07
2022-10-18T21:43:04.261Z,12.35
2022-10-18T21:45:31.819Z,12.18
2022-10-18T21:47:59.396Z,11.88
2022-10-18T21:50:30.918Z,11.00
2022-10-18T21:52:58.222Z,11.40
2022-10-18T21:55:25.695Z,10.35
2022-10-18T21:57:52.980Z,11.85
2022-10-18T22:00:20.660Z,10.70
2022-10-18T22:02:48.200Z,10.63
2022-10-18T22:05:15.876Z,11.57
2022-10-18T22:07:43.131Z,11.13
2022-10-18T22:10:10.744Z,12.10
2022-10-18T22:12:38.029Z,11.25
2022-10-18T22:15:05.720Z,10.77
2022-10-18T22:17:33.403Z,10.82
2022-10-18T22:20:01.202Z,10.38
2022-10-18T22:22:28.563Z,12.00
2022-10-18T22:24:56.047Z,10.93
2022-10-18T22:27:23.329Z,9.95
2022-10-18T22:29:50.953Z,9.50
2022-10-18T22:32:18.421Z,9.20
2022-10-18T22:34:45.938Z,9.27
2022-10-18T22:37:13.238Z,9.88
2022-10-18T22:39:40.676Z,9.50
2022-10-18T22:42:07.942Z,9.13
2022-10-18T22:44:35.399Z,9.57
2022-10-18T22:47:02.761Z,6.95
2022-10-18T22:49:30.207Z,7.90
2022-10-18T23:01:49.765Z,7.80
2022-10-18T23:16:38.488Z,7.30
2022-10-18T23:21:34.763Z,8.23
2022-10-18T23:24:02.244Z,6.32
2022-10-18T23:26:29.549Z,6.60
2022-10-18T23:28:57.188Z,6.30
2022-10-18T23:31:26.409Z,6.80
2022-10-18T23:33:55.563Z,6.72
2022-10-18T23:36:23.186Z,6.75
2022-10-18T23:38:51.035Z,7.00
2022-10-18T23:41:18.520Z,6.65
2022-10-18T23:43:46.172Z,6.40
2022-10-18T23:46:14.056Z,7.00
2022-10-18T23:48:42.792Z,6.90
2022-10-18T23:51:10.375Z,7.00
2022-10-18T23:53:38.277Z,7.15
2022-10-18T23:56:07.354Z,8.45
2022-10-18T23:58:35.606Z,7.53
